Wilson Lista — 8PRW — position and weather

sailwx.info

Track history (hours):
 
Tides and Currents Weather Stations Pressure Air Temp Water Temp Dewpoint Dewpoint Depression Visibility Wind Speed Wind Dir Waves Ship Positions

Wilson Lista

Last reported at 2014-Sep-25 09:33 UTC. Time now 2014-Sep-30 10:24 UTC.
Position N 50°36' E 000°19'.

Length 88 m; draft 5.5 m.

Type: Cargo ship. MMSI: 314188000.

Date/timePositionNaut miles runAvg speedWind from/ knotsBaromVisibWave heightAir tempDewpointWater temp
2014-Sep-25 09:33N 50°36' E 000°19'7 7.2
2014-Sep-25 08:33N 50°38' E 000°30'8 8.6
2014-Sep-25 07:33N 50°42' E 000°42'1110.6
2014-Sep-25 06:33N 50°48' E 000°56'2210.5
2014-Sep-25 04:29N 51°01' E 001°22'8 8.9
2014-Sep-25 03:33N 51°07' E 001°32'7 7.1
2014-Sep-25 02:33N 51°12' E 001°41'7 6.5
2014-Sep-25 01:33N 51°17' E 001°47'7 6.9
2014-Sep-25 00:33N 51°23' E 001°52'8 7.9
2014-Sep-24 23:33N 51°30' E 001°58'  
2014-Sep-22 19:16N 58°50' E 005°05'7 9.4
2014-Sep-22 18:33N 58°57' E 005°07'9 8.9
2014-Sep-22 17:33N 59°04' E 005°16'14 1.7
2014-Sep-22 09:17N 59°19' E 005°19'0 0.0
2014-Sep-22 08:29N 59°19' E 005°19'4 0.2
2014-Sep-21 08:33N 59°23' E 005°18'1 1.4
2014-Sep-21 07:32N 59°24' E 005°16'0 0.0
2014-Sep-21 06:33N 59°24' E 005°16'11 7.1
2014-Sep-21 05:04N 59°13' E 005°21'4 7.0
2014-Sep-21 04:33N 59°10' E 005°21'8 7.7
2014-Sep-21 03:34N 59°03' E 005°15'7 7.2
2014-Sep-21 02:33N 59°06' E 005°02'  
Track history (hours):
 
Tides and Currents Weather Stations Pressure Air Temp Water Temp Dewpoint Dewpoint Depression Visibility Wind Speed Wind Dir Waves Ship Positions

Wilson Lista

Last reported at 2014-Sep-25 09:33 UTC. Time now 2014-Sep-30 10:24 UTC.
Position N 50°36' E 000°19'.

Length 88 m; draft 5.5 m.

Type: Cargo ship. MMSI: 314188000.

Date/timePositionNaut miles runAvg speedWind from/ knotsBaromVisibWave heightAir tempDewpointWater temp
2014-Sep-25 09:33N 50°36' E 000°19'7 7.2
2014-Sep-25 08:33N 50°38' E 000°30'8 8.6
2014-Sep-25 07:33N 50°42' E 000°42'1110.6
2014-Sep-25 06:33N 50°48' E 000°56'2210.5
2014-Sep-25 04:29N 51°01' E 001°22'8 8.9
2014-Sep-25 03:33N 51°07' E 001°32'7 7.1
2014-Sep-25 02:33N 51°12' E 001°41'7 6.5
2014-Sep-25 01:33N 51°17' E 001°47'7 6.9
2014-Sep-25 00:33N 51°23' E 001°52'8 7.9
2014-Sep-24 23:33N 51°30' E 001°58'  
2014-Sep-22 19:16N 58°50' E 005°05'7 9.4
2014-Sep-22 18:33N 58°57' E 005°07'9 8.9
2014-Sep-22 17:33N 59°04' E 005°16'14 1.7
2014-Sep-22 09:17N 59°19' E 005°19'0 0.0
2014-Sep-22 08:29N 59°19' E 005°19'4 0.2
2014-Sep-21 08:33N 59°23' E 005°18'1 1.4
2014-Sep-21 07:32N 59°24' E 005°16'0 0.0
2014-Sep-21 06:33N 59°24' E 005°16'11 7.1
2014-Sep-21 05:04N 59°13' E 005°21'4 7.0
2014-Sep-21 04:33N 59°10' E 005°21'8 7.7
2014-Sep-21 03:34N 59°03' E 005°15'7 7.2
2014-Sep-21 02:33N 59°06' E 005°02'  

Dump ship's entire track history